Time;durP1;ratioP1;P1;durP2;ratioP2;P2;SDS_P1;SDS_P2;PMS_P1;PMS_P2;Temp;Humidity;BMP_temperature;BMP_pressure;BME280_temperature;BME280_humidity;BME280_pressure;Samples;Min_cycle;Max_cycle;Signal;HPM_P1;HPM_P2
2023/01/24 00:01:55;;;;;;;47.43;15.37;;;;;;;;;;5008643;28;20466;-65
2023/01/24 00:04:20;;;;;;;49.03;16.10;;;;;;;;;;5010315;28;20057;-64
2023/01/24 00:06:45;;;;;;;52.03;16.73;;;;;;;;;;5012560;28;20021;-66
2023/01/24 00:09:11;;;;;;;51.75;17.52;;;;;;;;;;5000515;28;20029;-65
2023/01/24 00:11:36;;;;;;;45.45;15.38;;;;;;;;;;5007889;28;20076;-66
2023/01/24 00:14:01;;;;;;;48.63;15.77;;;;;;;;;;5009996;28;20432;-68
2023/01/24 00:16:26;;;;;;;46.97;16.38;;;;;;;;;;5010529;28;20030;-67
2023/01/24 00:18:51;;;;;;;52.30;18.43;;;;;;;;;;5010631;28;20026;-63
2023/01/24 00:21:18;;;;;;;49.17;16.40;;;;;;;;;;5005987;28;20026;-67
2023/01/24 00:23:44;;;;;;;51.50;16.73;;;;;;;;;;5004056;28;20026;-62
2023/01/24 00:26:10;;;;;;;52.33;16.67;;;;;;;;;;5010198;28;20014;-62
2023/01/24 00:28:35;;;;;;;60.10;17.92;;;;;;;;;;5009966;28;20474;-65
2023/01/24 00:31:01;;;;;;;55.95;19.63;;;;;;;;;;5007263;28;20365;-64
2023/01/24 00:33:26;;;;;;;52.28;17.33;;;;;;;;;;5001765;28;20026;-64
2023/01/24 00:35:52;;;;;;;52.63;17.77;;;;;;;;;;5009501;28;20113;-63
2023/01/24 00:38:17;;;;;;;58.22;17.58;;;;;;;;;;5009981;28;20583;-63
2023/01/24 00:40:42;;;;;;;52.67;17.58;;;;;;;;;;5007130;28;20087;-65
2023/01/24 00:43:07;;;;;;;48.83;16.43;;;;;;;;;;5001936;28;20026;-63
2023/01/24 00:45:34;;;;;;;57.97;18.40;;;;;;;;;;5010150;28;20022;-67
2023/01/24 00:47:59;;;;;;;;;;;;;;;;;;5010721;28;20094;-63
2023/01/24 00:50:25;;;;;;;57.97;17.58;;;;;;;;;;5007427;28;19914;-66
2023/01/24 00:52:50;;;;;;;58.33;18.55;;;;;;;;;;5009642;28;20049;-62
2023/01/24 00:55:15;;;;;;;58.53;19.77;;;;;;;;;;5010330;28;20026;-66
2023/01/24 00:57:40;;;;;;;63.00;19.27;;;;;;;;;;5009496;28;20418;-62
2023/01/24 01:00:07;;;;;;;56.50;17.55;;;;;;;;;;5007474;28;20036;-66
2023/01/24 01:02:33;;;;;;;63.35;20.13;;;;;;;;;;5005252;28;20076;-62
2023/01/24 01:04:58;;;;;;;52.50;17.25;;;;;;;;;;5013233;28;20017;-64
2023/01/24 01:07:24;;;;;;;60.95;19.05;;;;;;;;;;5012377;28;20061;-62
2023/01/24 01:09:49;;;;;;;60.22;18.85;;;;;;;;;;5012652;28;20060;-65
2023/01/24 01:12:14;;;;;;;57.43;18.47;;;;;;;;;;5003172;28;20066;-65
2023/01/24 01:14:40;;;;;;;54.95;18.58;;;;;;;;;;5013000;28;20022;-62
2023/01/24 01:17:05;;;;;;;57.45;19.08;;;;;;;;;;5012817;28;20418;-65
2023/01/24 01:19:30;;;;;;;55.10;18.02;;;;;;;;;;5012856;28;20046;-62
2023/01/24 01:21:55;;;;;;;61.20;18.90;;;;;;;;;;5011348;28;20022;-63
2023/01/24 01:24:20;;;;;;;52.47;17.30;;;;;;;;;;5012380;28;20037;-62
2023/01/24 01:26:45;;;;;;;49.65;16.77;;;;;;;;;;5012769;28;20120;-62
2023/01/24 01:29:11;;;;;;;62.15;19.33;;;;;;;;;;5012249;28;20048;-63
2023/01/24 01:31:36;;;;;;;52.83;17.37;;;;;;;;;;5006316;28;20049;-63
2023/01/24 01:34:01;;;;;;;54.95;18.63;;;;;;;;;;5012484;28;20018;-70
2023/01/24 01:36:26;;;;;;;47.25;16.38;;;;;;;;;;5012221;28;20029;-62
2023/01/24 01:38:52;;;;;;;61.45;18.60;;;;;;;;;;5012380;28;20078;-64
2023/01/24 01:41:18;;;;;;;49.95;16.88;;;;;;;;;;5007987;28;20022;-65
2023/01/24 01:44:37;;;;;;;47.45;17.33;;;;;;;;;;5003476;28;20831;-68
2023/01/24 01:46:37;;;;;;;49.65;16.80;;;;;;;;;;5012249;28;20069;-63
2023/01/24 01:49:02;;;;;;;48.70;17.25;;;;;;;;;;5012784;28;20071;-71
2023/01/24 01:51:43;;;;;;;51.38;17.52;;;;;;;;;;5018754;28;20113;-63
2023/01/24 01:54:18;;;;;;;45.88;15.63;;;;;;;;;;5012460;28;20022;-66
2023/01/24 01:56:46;;;;;;;52.35;17.42;;;;;;;;;;5012584;28;20368;-64
2023/01/24 01:59:14;;;;;;;47.95;16.42;;;;;;;;;;5013116;28;20034;-63
2023/01/24 02:01:40;;;;;;;47.67;17.23;;;;;;;;;;5008933;28;20018;-64
2023/01/24 02:04:07;;;;;;;51.42;17.33;;;;;;;;;;5013270;28;20021;-64
2023/01/24 02:06:45;;;;;;;46.97;16.98;;;;;;;;;;5011919;28;20483;-64
2023/01/24 02:09:11;;;;;;;52.08;17.17;;;;;;;;;;5011100;28;20586;-64
2023/01/24 02:11:38;;;;;;;50.08;17.13;;;;;;;;;;5006380;28;20102;-62
2023/01/24 02:16:47;;;;;;;52.83;17.30;;;;;;;;;;5004436;28;20025;-64
2023/01/24 02:19:20;;;;;;;50.63;17.13;;;;;;;;;;5010976;28;20029;-68
2023/01/24 02:21:46;;;;;;;44.58;15.90;;;;;;;;;;5009598;28;20053;-62
2023/01/24 02:24:23;;;;;;;51.85;16.77;;;;;;;;;;5011978;28;20050;-62
2023/01/24 02:26:48;;;;;;;47.45;16.70;;;;;;;;;;5009703;28;20057;-62
2023/01/24 02:29:14;;;;;;;55.38;18.67;;;;;;;;;;5008969;28;20021;-63
2023/01/24 02:31:53;;;;;;;57.13;18.77;;;;;;;;;;5002212;28;20041;-64
2023/01/24 02:34:18;;;;;;;;;;;;;;;;;;5012123;28;20037;-66
2023/01/24 02:36:43;;;;;;;52.63;17.63;;;;;;;;;;5011286;28;19916;-63
2023/01/24 02:39:16;;;;;;;52.23;17.90;;;;;;;;;;5011895;28;20119;-63
2023/01/24 02:41:54;;;;;;;47.55;16.48;;;;;;;;;;5003815;28;20470;-63
2023/01/24 02:44:22;;;;;;;56.90;17.65;;;;;;;;;;5010038;28;20018;-64
2023/01/24 02:46:47;;;;;;;54.15;18.00;;;;;;;;;;5010235;28;20503;-63
2023/01/24 02:49:13;;;;;;;47.33;17.08;;;;;;;;;;5011005;28;20103;-67
2023/01/24 02:54:22;;;;;;;50.75;17.20;;;;;;;;;;5003398;28;20545;-63
2023/01/24 02:59:31;;;;;;;53.28;16.80;;;;;;;;;;5010467;28;20095;-63
2023/01/24 03:01:56;;;;;;;47.08;17.45;;;;;;;;;;5009622;28;20471;-66
2023/01/24 03:04:21;;;;;;;53.03;17.77;;;;;;;;;;5009782;28;20041;-62
2023/01/24 03:06:48;;;;;;;50.03;16.97;;;;;;;;;;5010183;28;20033;-63
2023/01/24 03:09:19;;;;;;;;;;;;;;;;;;5011496;28;20522;-62
2023/01/24 03:11:45;;;;;;;48.95;16.58;;;;;;;;;;5010166;28;19916;-65
2023/01/24 03:36:06;;;;;;;47.58;15.80;;;;;;;;;;5006787;28;20068;-67
2023/01/24 03:41:15;;;;;;;43.55;15.13;;;;;;;;;;5000485;28;20033;-62
2023/01/24 03:43:41;;;;;;;45.40;15.57;;;;;;;;;;5008698;28;20018;-66
2023/01/24 03:46:06;;;;;;;42.90;15.60;;;;;;;;;;5010185;28;20032;-63
2023/01/24 03:48:36;;;;;;;44.70;16.40;;;;;;;;;;5009545;28;20453;-67
2023/01/24 03:53:45;;;;;;;;;;;;;;;;;;5007646;28;20411;-66
2023/01/24 03:56:10;;;;;;;44.22;15.57;;;;;;;;;;5009937;28;20282;-63
2023/01/24 03:58:36;;;;;;;43.67;14.77;;;;;;;;;;5009842;28;20022;-62
2023/01/24 04:01:01;;;;;;;46.50;15.43;;;;;;;;;;5006654;28;20481;-63
2023/01/24 04:03:26;;;;;;;48.17;15.80;;;;;;;;;;5017226;28;20013;-66
2023/01/24 04:05:51;;;;;;;52.38;16.33;;;;;;;;;;5010203;28;20088;-62
2023/01/24 04:08:17;;;;;;;46.10;14.63;;;;;;;;;;5011422;28;20041;-65
2023/01/24 04:10:42;;;;;;;46.33;14.98;;;;;;;;;;5008066;28;20598;-63
2023/01/24 04:13:10;;;;;;;44.20;14.70;;;;;;;;;;5009810;28;20022;-64
2023/01/24 04:15:36;;;;;;;45.55;14.82;;;;;;;;;;5009834;28;20025;-64
2023/01/24 04:18:02;;;;;;;43.88;14.10;;;;;;;;;;5009113;28;20018;-63
2023/01/24 04:20:28;;;;;;;48.75;15.90;;;;;;;;;;5003420;28;20026;-62
2023/01/24 04:22:54;;;;;;;49.05;15.60;;;;;;;;;;5005371;28;20442;-66
2023/01/24 04:25:19;;;;;;;46.30;16.02;;;;;;;;;;5008782;28;20071;-62
2023/01/24 04:27:45;;;;;;;48.13;16.07;;;;;;;;;;5007710;28;20379;-63
2023/01/24 04:30:11;;;;;;;50.95;16.63;;;;;;;;;;5096221;23;20898;-66
2023/01/24 04:32:36;;;;;;;44.92;15.82;;;;;;;;;;4999682;28;20464;-67
2023/01/24 04:35:03;;;;;;;47.03;15.33;;;;;;;;;;5005594;28;20037;-66
2023/01/24 04:37:28;;;;;;;42.47;14.27;;;;;;;;;;5006779;28;20026;-67
2023/01/24 04:39:53;;;;;;;50.47;17.08;;;;;;;;;;5011319;28;20029;-68
2023/01/24 04:42:18;;;;;;;48.87;15.87;;;;;;;;;;5011336;28;20077;-67
2023/01/24 04:44:43;;;;;;;47.70;15.17;;;;;;;;;;5000416;28;20030;-66
2023/01/24 04:47:09;;;;;;;44.42;15.35;;;;;;;;;;5007201;28;20033;-65
2023/01/24 04:49:34;;;;;;;45.10;15.30;;;;;;;;;;4996551;28;20025;-65
2023/01/24 04:51:59;;;;;;;48.45;15.75;;;;;;;;;;5012424;28;20018;-63
2023/01/24 04:54:24;;;;;;;45.53;14.45;;;;;;;;;;5012866;28;20082;-66
2023/01/24 04:56:50;;;;;;;50.28;15.50;;;;;;;;;;5011809;28;20030;-64
2023/01/24 04:59:15;;;;;;;43.53;14.65;;;;;;;;;;4999831;28;20506;-65
2023/01/24 05:01:40;;;;;;;44.20;14.52;;;;;;;;;;5005192;28;20080;-65
2023/01/24 05:04:05;;;;;;;43.07;14.63;;;;;;;;;;5009305;28;20034;-66
2023/01/24 05:06:31;;;;;;;43.10;14.50;;;;;;;;;;5012579;28;20018;-64
2023/01/24 05:08:56;;;;;;;50.47;15.38;;;;;;;;;;5008878;28;20026;-64
2023/01/24 05:11:22;;;;;;;47.65;15.35;;;;;;;;;;5017181;28;20040;-64
2023/01/24 05:13:48;;;;;;;43.47;14.60;;;;;;;;;;5016799;28;20029;-64
2023/01/24 05:16:13;;;;;;;49.65;16.58;;;;;;;;;;5022281;28;20619;-64
2023/01/24 05:18:38;;;;;;;49.35;15.85;;;;;;;;;;5001841;28;20029;-67
2023/01/24 05:21:04;;;;;;;49.53;15.83;;;;;;;;;;5008000;28;20143;-64
2023/01/24 05:23:30;;;;;;;50.10;15.85;;;;;;;;;;5008695;28;20040;-65
2023/01/24 05:25:57;;;;;;;54.70;17.88;;;;;;;;;;5008125;28;20386;-67
2023/01/24 05:28:22;;;;;;;48.50;15.10;;;;;;;;;;4999444;28;20560;-64
2023/01/24 05:30:48;;;;;;;44.45;14.95;;;;;;;;;;5001959;28;20065;-66
2023/01/24 05:33:13;;;;;;;48.22;15.52;;;;;;;;;;5002197;28;20615;-65
2023/01/24 05:35:40;;;;;;;46.65;15.88;;;;;;;;;;5010200;28;20022;-65
2023/01/24 05:38:05;;;;;;;43.03;14.70;;;;;;;;;;5004656;28;20034;-63
2023/01/24 05:40:30;;;;;;;56.13;16.10;;;;;;;;;;5001664;28;20483;-66
2023/01/24 05:42:55;;;;;;;48.08;15.23;;;;;;;;;;4995903;28;20077;-66
2023/01/24 05:45:20;;;;;;;44.47;15.30;;;;;;;;;;5004217;28;20045;-63
2023/01/24 05:47:46;;;;;;;48.83;15.90;;;;;;;;;;4997978;28;20578;-67
2023/01/24 05:50:11;;;;;;;53.20;16.55;;;;;;;;;;5009624;28;20109;-66
2023/01/24 05:52:36;;;;;;;51.50;15.60;;;;;;;;;;5001654;28;20023;-65
2023/01/24 05:55:01;;;;;;;42.83;15.05;;;;;;;;;;5011858;28;20072;-65
2023/01/24 05:57:26;;;;;;;43.72;14.45;;;;;;;;;;5007822;28;20034;-63
2023/01/24 05:59:51;;;;;;;47.60;15.13;;;;;;;;;;5007875;28;20022;-65
2023/01/24 06:02:18;;;;;;;49.45;16.40;;;;;;;;;;5009189;28;20045;-63
2023/01/24 06:04:43;;;;;;;48.63;15.60;;;;;;;;;;5014674;28;20030;-66
2023/01/24 06:07:08;;;;;;;44.55;15.48;;;;;;;;;;5012209;28;20391;-67
2023/01/24 06:09:33;;;;;;;45.00;15.38;;;;;;;;;;5016244;28;20025;-63
2023/01/24 06:11:58;;;;;;;45.97;14.95;;;;;;;;;;5012159;28;20075;-67
2023/01/24 06:14:24;;;;;;;48.72;15.23;;;;;;;;;;5007356;28;20025;-66
2023/01/24 06:16:49;;;;;;;43.10;14.80;;;;;;;;;;5004074;28;20053;-64
2023/01/24 06:19:14;;;;;;;42.37;14.90;;;;;;;;;;5009665;28;20072;-64
2023/01/24 06:21:45;;;;;;;45.38;15.50;;;;;;;;;;5001271;28;20018;-65
2023/01/24 06:24:15;;;;;;;39.03;13.70;;;;;;;;;;5011390;28;20096;-65
2023/01/24 06:26:41;;;;;;;44.72;15.13;;;;;;;;;;5012329;28;20470;-65
2023/01/24 06:29:08;;;;;;;47.23;14.90;;;;;;;;;;5012716;28;20057;-64
2023/01/24 06:31:52;;;;;;;43.38;14.35;;;;;;;;;;5010776;28;20022;-64
2023/01/24 06:34:25;;;;;;;44.20;14.40;;;;;;;;;;5012650;28;20045;-64
2023/01/24 06:36:53;;;;;;;43.30;14.85;;;;;;;;;;5012635;28;20022;-63
2023/01/24 06:39:20;;;;;;;40.17;13.15;;;;;;;;;;5012554;28;20092;-64
2023/01/24 06:41:45;;;;;;;44.33;15.55;;;;;;;;;;5010188;28;20503;-63
2023/01/24 06:44:10;;;;;;;43.00;14.50;;;;;;;;;;5011978;28;20112;-65
2023/01/24 06:46:36;;;;;;;41.45;14.23;;;;;;;;;;5008371;28;20053;-67
2023/01/24 06:49:01;;;;;;;45.17;15.17;;;;;;;;;;5012080;28;20103;-64
2023/01/24 06:51:26;;;;;;;39.25;13.18;;;;;;;;;;5010830;28;21043;-66
2023/01/24 06:53:51;;;;;;;44.87;16.03;;;;;;;;;;5012674;28;20084;-65
2023/01/24 06:56:16;;;;;;;41.75;14.02;;;;;;;;;;5011769;28;20024;-66
2023/01/24 06:58:41;;;;;;;44.90;15.20;;;;;;;;;;5004022;28;20090;-64
2023/01/24 07:01:06;;;;;;;44.00;14.40;;;;;;;;;;5007632;28;20433;-65
2023/01/24 07:03:32;;;;;;;49.15;14.40;;;;;;;;;;5011320;28;20029;-63
2023/01/24 07:05:57;;;;;;;39.90;13.95;;;;;;;;;;5016536;28;20029;-65
2023/01/24 07:08:22;;;;;;;45.17;15.03;;;;;;;;;;5012472;28;20073;-65
2023/01/24 07:10:47;;;;;;;41.13;14.23;;;;;;;;;;5012710;28;20026;-65
2023/01/24 07:13:13;;;;;;;40.57;14.87;;;;;;;;;;5012612;28;20472;-64
2023/01/24 07:15:38;;;;;;;44.03;14.67;;;;;;;;;;5014397;28;20029;-63
2023/01/24 07:18:06;;;;;;;40.90;14.30;;;;;;;;;;5013607;28;20453;-66
2023/01/24 07:20:32;;;;;;;42.10;14.40;;;;;;;;;;5001630;28;20402;-64
2023/01/24 07:22:57;;;;;;;43.27;14.87;;;;;;;;;;5003837;28;20018;-65
2023/01/24 07:25:23;;;;;;;39.93;14.50;;;;;;;;;;5002238;28;20479;-64
2023/01/24 07:27:48;;;;;;;40.53;13.95;;;;;;;;;;5005680;28;20113;-65
2023/01/24 07:30:14;;;;;;;41.78;14.18;;;;;;;;;;5001906;28;20030;-65
2023/01/24 07:32:39;;;;;;;44.40;13.93;;;;;;;;;;5013142;28;20030;-68
2023/01/24 07:35:05;;;;;;;44.42;14.95;;;;;;;;;;5008798;28;20033;-66
2023/01/24 07:37:30;;;;;;;45.45;15.30;;;;;;;;;;5019884;28;20129;-65
2023/01/24 07:39:55;;;;;;;38.57;12.83;;;;;;;;;;5016883;28;20494;-67
2023/01/24 07:42:20;;;;;;;39.42;12.95;;;;;;;;;;5003398;28;21088;-65
2023/01/24 07:44:45;;;;;;;35.60;12.40;;;;;;;;;;5004822;28;20026;-63
2023/01/24 07:47:11;;;;;;;42.03;14.10;;;;;;;;;;5010975;28;20036;-64
2023/01/24 07:49:36;;;;;;;38.17;12.87;;;;;;;;;;5009973;28;20029;-63
2023/01/24 07:52:01;;;;;;;38.83;13.25;;;;;;;;;;5011595;28;20026;-65
2023/01/24 07:54:26;;;;;;;43.38;15.27;;;;;;;;;;5010264;28;20053;-65
2023/01/24 07:56:51;;;;;;;41.20;13.40;;;;;;;;;;5007788;28;20014;-65
2023/01/24 07:59:16;;;;;;;37.63;12.90;;;;;;;;;;5017485;28;20104;-64
2023/01/24 08:01:41;;;;;;;38.13;12.32;;;;;;;;;;5016224;28;20026;-65
2023/01/24 08:04:07;;;;;;;42.97;14.57;;;;;;;;;;5016464;28;20026;-64
2023/01/24 08:06:32;;;;;;;40.03;13.73;;;;;;;;;;5018436;28;20040;-65
2023/01/24 08:08:57;;;;;;;35.97;12.82;;;;;;;;;;5021691;28;20026;-65
2023/01/24 08:11:22;;;;;;;43.60;14.20;;;;;;;;;;5026451;28;20014;-66
2023/01/24 08:13:49;;;;;;;37.72;12.98;;;;;;;;;;5028634;28;20026;-65
2023/01/24 08:16:15;;;;;;;35.33;11.85;;;;;;;;;;5025731;28;20050;-67
2023/01/24 08:18:46;;;;;;;43.40;14.63;;;;;;;;;;5025588;28;20026;-66
2023/01/24 08:21:11;;;;;;;35.70;12.38;;;;;;;;;;5023629;28;20064;-65
2023/01/24 08:23:36;;;;;;;42.43;14.70;;;;;;;;;;5010401;28;20495;-65
2023/01/24 08:26:02;;;;;;;36.38;13.43;;;;;;;;;;5010723;28;20026;-65
2023/01/24 08:28:29;;;;;;;36.90;13.82;;;;;;;;;;5010892;28;20052;-66
2023/01/24 08:30:54;;;;;;;;;;;;;;;;;;5010316;28;20080;-65
2023/01/24 08:33:19;;;;;;;37.67;12.95;;;;;;;;;;5009403;28;19913;-64
2023/01/24 08:35:45;;;;;;;41.95;13.95;;;;;;;;;;5011851;28;20025;-66
2023/01/24 08:38:11;;;;;;;41.35;13.93;;;;;;;;;;5011782;28;20178;-65
2023/01/24 08:40:36;;;;;;;39.38;13.10;;;;;;;;;;5009587;28;20034;-64
2023/01/24 08:43:01;;;;;;;43.28;14.32;;;;;;;;;;5011833;28;20014;-65
2023/01/24 08:45:27;;;;;;;39.55;13.68;;;;;;;;;;5008210;28;20440;-63
2023/01/24 08:47:52;;;;;;;43.22;14.80;;;;;;;;;;5010439;28;20017;-65
2023/01/24 08:50:19;;;;;;;40.70;13.65;;;;;;;;;;5008827;28;20060;-62
2023/01/24 08:52:44;;;;;;;36.85;14.43;;;;;;;;;;5010615;28;20022;-64
2023/01/24 08:55:09;;;;;;;43.70;15.07;;;;;;;;;;5008327;28;20084;-62
2023/01/24 08:57:34;;;;;;;42.45;14.02;;;;;;;;;;5008288;28;20036;-64
2023/01/24 08:59:59;;;;;;;40.03;14.07;;;;;;;;;;4990461;28;20476;-64
2023/01/24 09:02:25;;;;;;;45.28;15.45;;;;;;;;;;4995261;28;20030;-64
2023/01/24 09:04:50;;;;;;;43.22;14.68;;;;;;;;;;5007180;28;20050;-64
2023/01/24 09:07:15;;;;;;;43.27;15.17;;;;;;;;;;5009204;28;20379;-63
2023/01/24 09:09:40;;;;;;;42.97;15.17;;;;;;;;;;5009612;28;20108;-62
2023/01/24 09:12:05;;;;;;;43.25;14.27;;;;;;;;;;5010798;28;20022;-62
2023/01/24 09:14:30;;;;;;;42.33;13.93;;;;;;;;;;5010672;28;20041;-63
2023/01/24 09:16:56;;;;;;;39.80;13.45;;;;;;;;;;5009571;28;20046;-64
2023/01/24 09:19:21;;;;;;;42.38;14.85;;;;;;;;;;5009502;28;20021;-63
2023/01/24 09:21:51;;;;;;;40.92;13.57;;;;;;;;;;5011309;28;20030;-62
2023/01/24 09:24:16;;;;;;;37.95;13.48;;;;;;;;;;5013953;28;20117;-65
2023/01/24 09:26:43;;;;;;;38.15;13.32;;;;;;;;;;5013834;28;20025;-65
2023/01/24 09:29:08;;;;;;;37.53;13.02;;;;;;;;;;5012551;28;20057;-65
2023/01/24 09:31:33;;;;;;;43.47;14.37;;;;;;;;;;5015910;28;20053;-63
2023/01/24 09:33:58;;;;;;;45.37;15.07;;;;;;;;;;5013899;28;20018;-64
2023/01/24 09:36:23;;;;;;;40.22;13.63;;;;;;;;;;5013780;28;20076;-62
2023/01/24 09:38:49;;;;;;;42.10;13.90;;;;;;;;;;5013427;28;20021;-63
2023/01/24 09:41:19;;;;;;;39.05;14.38;;;;;;;;;;5016970;28;20479;-64
2023/01/24 09:43:56;;;;;;;41.00;14.52;;;;;;;;;;5013601;28;20415;-64
2023/01/24 09:46:21;;;;;;;38.97;13.32;;;;;;;;;;5010028;28;20034;-63
2023/01/24 09:48:47;;;;;;;41.13;13.77;;;;;;;;;;5013267;28;20041;-62
2023/01/24 09:51:19;;;;;;;44.05;15.05;;;;;;;;;;5015061;28;20046;-64
2023/01/24 09:53:45;;;;;;;41.63;14.18;;;;;;;;;;5019238;28;20383;-63
2023/01/24 09:56:26;;;;;;;43.97;15.15;;;;;;;;;;5022058;28;20052;-63
2023/01/24 09:58:53;;;;;;;40.20;13.98;;;;;;;;;;5016016;28;20093;-66
2023/01/24 10:01:19;;;;;;;39.95;13.88;;;;;;;;;;5012721;28;20183;-64
2023/01/24 10:03:44;;;;;;;41.47;13.73;;;;;;;;;;5012919;28;20499;-63
2023/01/24 10:06:17;;;;;;;42.20;13.57;;;;;;;;;;5010249;28;20026;-62
2023/01/24 10:08:50;;;;;;;42.33;14.25;;;;;;;;;;5012991;28;20026;-63
2023/01/24 10:11:30;;;;;;;44.45;14.38;;;;;;;;;;5012216;28;20029;-63
2023/01/24 10:13:56;;;;;;;47.97;14.93;;;;;;;;;;5013150;28;20029;-63
2023/01/24 10:16:46;;;;;;;45.13;14.90;;;;;;;;;;5011080;28;20022;-63
2023/01/24 10:19:30;;;;;;;42.25;13.65;;;;;;;;;;5013493;28;20026;-63
2023/01/24 10:22:11;;;;;;;46.83;14.85;;;;;;;;;;5013658;28;20029;-65
2023/01/24 10:24:38;;;;;;;40.83;14.50;;;;;;;;;;5012930;28;20038;-64
2023/01/24 10:27:15;;;;;;;45.63;15.05;;;;;;;;;;5012100;28;20101;-65
2023/01/24 10:29:42;;;;;;;50.47;15.40;;;;;;;;;;5012548;28;20521;-64
2023/01/24 10:32:12;;;;;;;42.03;15.30;;;;;;;;;;5012701;28;20073;-64
2023/01/24 10:34:40;;;;;;;42.47;14.35;;;;;;;;;;5026326;28;20022;-63
2023/01/24 10:37:08;;;;;;;43.80;14.57;;;;;;;;;;5013688;28;20459;-64
2023/01/24 10:39:33;;;;;;;47.28;15.88;;;;;;;;;;5013707;28;20030;-63
2023/01/24 10:41:58;;;;;;;45.72;14.23;;;;;;;;;;5019308;28;20056;-62
2023/01/24 10:44:23;;;;;;;43.07;14.70;;;;;;;;;;5017040;28;20022;-64
2023/01/24 10:46:54;;;;;;;44.78;14.93;;;;;;;;;;5012669;28;20018;-64
2023/01/24 10:49:22;;;;;;;43.22;14.45;;;;;;;;;;5012186;28;20037;-64
2023/01/24 10:52:06;;;;;;;49.65;14.80;;;;;;;;;;5012101;28;20487;-64
2023/01/24 10:54:40;;;;;;;42.92;13.73;;;;;;;;;;5011253;28;20376;-63
2023/01/24 10:57:10;;;;;;;48.65;15.48;;;;;;;;;;5011887;28;20529;-63
2023/01/24 10:59:39;;;;;;;45.25;15.18;;;;;;;;;;5011599;28;20506;-63
2023/01/24 11:02:18;;;;;;;45.85;15.40;;;;;;;;;;5012622;28;20014;-62
2023/01/24 11:04:43;;;;;;;50.15;15.88;;;;;;;;;;5011585;28;20037;-64
2023/01/24 11:07:23;;;;;;;44.40;14.80;;;;;;;;;;5011746;28;20014;-64
2023/01/24 11:09:48;;;;;;;43.80;13.30;;;;;;;;;;5011941;28;20021;-65
2023/01/24 11:12:14;;;;;;;41.85;13.85;;;;;;;;;;5013209;28;20471;-65
2023/01/24 11:14:39;;;;;;;47.25;14.98;;;;;;;;;;5023338;28;20026;-61
2023/01/24 11:17:24;;;;;;;46.33;15.07;;;;;;;;;;5026746;28;20104;-64
2023/01/24 11:19:57;;;;;;;45.83;15.18;;;;;;;;;;5031148;28;20553;-64
2023/01/24 11:22:28;;;;;;;48.53;15.07;;;;;;;;;;5034128;28;20057;-63
2023/01/24 11:24:57;;;;;;;48.15;15.57;;;;;;;;;;5016099;28;20037;-63
2023/01/24 11:27:23;;;;;;;49.38;14.93;;;;;;;;;;5006779;28;20045;-61
2023/01/24 11:30:13;;;;;;;44.87;14.90;;;;;;;;;;5010986;28;20050;-64
2023/01/24 11:32:38;;;;;;;46.13;14.15;;;;;;;;;;5011423;28;20437;-65
2023/01/24 11:35:11;;;;;;;53.35;16.38;;;;;;;;;;5011336;28;20050;-65
2023/01/24 11:37:47;;;;;;;46.40;15.25;;;;;;;;;;5009424;28;20022;-63
2023/01/24 11:40:12;;;;;;;50.85;15.85;;;;;;;;;;5009573;28;20394;-64
2023/01/24 11:42:43;;;;;;;50.92;15.77;;;;;;;;;;5009035;28;20437;-64
2023/01/24 11:45:27;;;;;;;48.83;15.25;;;;;;;;;;5008756;28;20022;-65
2023/01/24 11:47:59;;;;;;;52.67;15.73;;;;;;;;;;5013040;28;20056;-64
2023/01/24 11:50:31;;;;;;;51.22;16.40;;;;;;;;;;5015408;28;20388;-63
2023/01/24 11:53:03;;;;;;;57.05;17.10;;;;;;;;;;5011510;28;20022;-63
2023/01/24 11:55:47;;;;;;;60.45;17.00;;;;;;;;;;5009934;28;20028;-63
2023/01/24 11:58:15;;;;;;;50.10;16.75;;;;;;;;;;5007357;28;20184;-63
2023/01/24 12:00:49;;;;;;;49.40;15.30;;;;;;;;;;5009069;28;20049;-63
2023/01/24 12:03:33;;;;;;;48.05;15.95;;;;;;;;;;5010949;28;20099;-64
2023/01/24 12:06:07;;;;;;;50.35;16.30;;;;;;;;;;5011191;28;20033;-65
2023/01/24 12:08:41;;;;;;;49.63;16.10;;;;;;;;;;5011261;28;20464;-64
2023/01/24 12:11:13;;;;;;;46.97;15.70;;;;;;;;;;5010211;28;20018;-62
2023/01/24 12:13:42;;;;;;;48.05;15.57;;;;;;;;;;5009301;28;20022;-63
2023/01/24 12:16:07;;;;;;;55.20;16.67;;;;;;;;;;5011202;28;20141;-64
2023/01/24 12:18:57;;;;;;;45.80;14.98;;;;;;;;;;5011976;28;20053;-64
2023/01/24 12:21:23;;;;;;;46.80;15.32;;;;;;;;;;5010268;28;20046;-64
2023/01/24 12:23:54;;;;;;;45.38;14.27;;;;;;;;;;5009631;28;20018;-63
2023/01/24 12:26:24;;;;;;;51.15;15.75;;;;;;;;;;5011027;28;20025;-63
2023/01/24 12:28:57;;;;;;;40.78;13.27;;;;;;;;;;5011311;28;20025;-63
2023/01/24 12:31:25;;;;;;;43.10;14.30;;;;;;;;;;5008456;28;20454;-64
2023/01/24 12:33:55;;;;;;;43.03;13.10;;;;;;;;;;5011642;28;20014;-63
2023/01/24 12:36:30;;;;;;;40.53;13.88;;;;;;;;;;5009614;28;20036;-65
2023/01/24 12:38:59;;;;;;;41.65;14.25;;;;;;;;;;5008486;28;20018;-64
2023/01/24 12:41:35;;;;;;;45.63;14.55;;;;;;;;;;5010074;28;20032;-62
2023/01/24 12:44:19;;;;;;;39.33;13.18;;;;;;;;;;5010909;28;20314;-64
2023/01/24 12:47:00;;;;;;;40.55;12.93;;;;;;;;;;5010894;28;20033;-64
2023/01/24 12:49:30;;;;;;;40.00;12.65;;;;;;;;;;4990609;28;20073;-63
2023/01/24 12:51:56;;;;;;;39.67;12.85;;;;;;;;;;5006410;28;20029;-64
2023/01/24 12:54:25;;;;;;;39.97;14.07;;;;;;;;;;5010459;28;20014;-63
2023/01/24 12:57:02;;;;;;;41.38;13.32;;;;;;;;;;5012134;28;20105;-65
2023/01/24 12:59:29;;;;;;;39.30;13.85;;;;;;;;;;5009934;28;20407;-63
2023/01/24 13:02:02;;;;;;;40.42;13.27;;;;;;;;;;5013924;28;20378;-63
2023/01/24 13:04:37;;;;;;;39.20;13.15;;;;;;;;;;4994420;28;20070;-64
2023/01/24 13:07:21;;;;;;;35.15;12.10;;;;;;;;;;5011128;28;20451;-64
2023/01/24 13:09:55;;;;;;;37.83;13.32;;;;;;;;;;5013980;28;20056;-63
2023/01/24 13:12:24;;;;;;;39.10;12.60;;;;;;;;;;5013662;28;20530;-63
2023/01/24 13:14:52;;;;;;;37.45;13.13;;;;;;;;;;5014137;28;20021;-65
2023/01/24 13:17:31;;;;;;;38.13;13.43;;;;;;;;;;5011252;28;20084;-62
2023/01/24 13:20:01;;;;;;;34.47;12.25;;;;;;;;;;5013012;28;20040;-63
2023/01/24 13:22:26;;;;;;;38.45;13.63;;;;;;;;;;5013882;28;20014;-65
2023/01/24 13:24:54;;;;;;;34.67;12.25;;;;;;;;;;5013753;28;20014;-64
2023/01/24 13:27:36;;;;;;;37.22;13.02;;;;;;;;;;5012516;28;20638;-64
2023/01/24 13:30:22;;;;;;;33.08;11.63;;;;;;;;;;5013001;28;20042;-63
2023/01/24 13:32:48;;;;;;;32.55;11.82;;;;;;;;;;5013660;28;20370;-64
2023/01/24 13:35:18;;;;;;;30.70;11.73;;;;;;;;;;5012576;28;20104;-65
2023/01/24 13:37:51;;;;;;;33.75;12.20;;;;;;;;;;5011923;28;20044;-66
2023/01/24 13:40:16;;;;;;;37.88;13.25;;;;;;;;;;5013159;28;20030;-62
2023/01/24 13:42:42;;;;;;;32.17;12.25;;;;;;;;;;5020434;28;20025;-64
2023/01/24 13:45:34;;;;;;;35.33;13.13;;;;;;;;;;5014797;28;20022;-63
2023/01/24 13:48:00;;;;;;;41.60;13.85;;;;;;;;;;5009787;28;20018;-61
2023/01/24 13:50:26;;;;;;;36.75;13.63;;;;;;;;;;5012982;28;20106;-64
2023/01/24 13:52:53;;;;;;;36.72;14.52;;;;;;;;;;5004592;28;20368;-63
2023/01/24 13:55:18;;;;;;;39.20;14.18;;;;;;;;;;5012509;28;20079;-63
2023/01/24 13:57:44;;;;;;;39.15;13.40;;;;;;;;;;5013667;28;20097;-63
2023/01/24 14:00:09;;;;;;;34.87;12.63;;;;;;;;;;5015233;28;20054;-63
2023/01/24 14:02:38;;;;;;;34.08;12.20;;;;;;;;;;5015891;28;20097;-64
2023/01/24 14:05:23;;;;;;;37.30;14.15;;;;;;;;;;5016956;28;20025;-64
2023/01/24 14:07:48;;;;;;;39.08;13.50;;;;;;;;;;5015992;28;20545;-63
2023/01/24 14:10:14;;;;;;;34.23;12.87;;;;;;;;;;5017104;28;20025;-63
2023/01/24 14:12:39;;;;;;;41.60;14.20;;;;;;;;;;5015158;28;20100;-64
2023/01/24 14:15:12;;;;;;;37.67;12.75;;;;;;;;;;5014172;28;20029;-64
2023/01/24 14:17:40;;;;;;;37.30;13.77;;;;;;;;;;5013404;28;20545;-63
2023/01/24 14:20:15;;;;;;;35.33;13.07;;;;;;;;;;5004656;28;20487;-63
2023/01/24 14:22:44;;;;;;;34.92;12.73;;;;;;;;;;5010807;28;20022;-64
2023/01/24 14:25:24;;;;;;;32.95;13.07;;;;;;;;;;5011916;28;20050;-64
2023/01/24 14:28:13;;;;;;;35.05;12.57;;;;;;;;;;5012481;28;20032;-63
2023/01/24 14:30:41;;;;;;;33.83;12.30;;;;;;;;;;5009768;28;20026;-64
2023/01/24 14:33:12;;;;;;;39.63;13.48;;;;;;;;;;5006717;28;20014;-63
2023/01/24 14:35:48;;;;;;;37.78;13.88;;;;;;;;;;5008311;28;20030;-65
2023/01/24 14:38:17;;;;;;;34.55;12.55;;;;;;;;;;5009566;28;20140;-62
2023/01/24 14:40:44;;;;;;;39.92;14.18;;;;;;;;;;5001112;28;20053;-63
2023/01/24 14:43:11;;;;;;;41.80;13.93;;;;;;;;;;5004987;28;20017;-62
2023/01/24 14:45:36;;;;;;;42.80;14.55;;;;;;;;;;5008004;28;20036;-64
2023/01/24 14:48:07;;;;;;;42.83;15.82;;;;;;;;;;5009129;28;20025;-63
2023/01/24 14:50:33;;;;;;;47.28;15.80;;;;;;;;;;5000438;28;20022;-63
2023/01/24 14:53:00;;;;;;;42.22;15.35;;;;;;;;;;5008266;28;20018;-63
2023/01/24 14:55:43;;;;;;;47.50;15.98;;;;;;;;;;5022211;28;20409;-62
2023/01/24 14:58:25;;;;;;;47.85;15.75;;;;;;;;;;5028960;28;20056;-65
2023/01/24 15:00:51;;;;;;;46.40;15.95;;;;;;;;;;4999040;28;20113;-63